Time;durP1;ratioP1;P1;durP2;ratioP2;P2;SDS_P1;SDS_P2;PMS_P1;PMS_P2;Temp;Humidity;BMP_temperature;BMP_pressure;BME280_temperature;BME280_humidity;BME280_pressure;Samples;Min_cycle;Max_cycle;Signal;HPM_P1;HPM_P2
2021/08/01 00:01:26;;;;;;;7.60;4.87;;;17.30;99.90;;;;;;5000909;28;20632;-91
2021/08/01 00:03:53;;;;;;;7.90;4.87;;;17.30;99.90;;;;;;5000790;28;21009;-91
2021/08/01 00:06:20;;;;;;;6.63;5.70;;;17.30;99.90;;;;;;4995943;28;21017;-91
2021/08/01 00:08:47;;;;;;;5.20;4.70;;;17.20;99.90;;;;;;4990564;28;20625;-91
2021/08/01 00:11:15;;;;;;;6.73;4.93;;;17.20;99.90;;;;;;4995377;28;20655;-91
2021/08/01 00:13:43;;;;;;;9.10;5.00;;;17.20;99.90;;;;;;4997246;28;20623;-92
2021/08/01 00:16:09;;;;;;;5.83;5.03;;;17.20;99.90;;;;;;4998701;28;21076;-92
2021/08/01 00:18:36;;;;;;;9.60;5.93;;;17.10;99.90;;;;;;4994899;28;20628;-91
2021/08/01 00:21:03;;;;;;;8.77;5.77;;;17.10;99.90;;;;;;4996547;28;20623;-91
2021/08/01 00:23:30;;;;;;;7.93;5.87;;;17.10;99.90;;;;;;5002753;28;20986;-91
2021/08/01 00:25:57;;;;;;;10.53;5.90;;;17.10;99.90;;;;;;4991529;28;20656;-90
2021/08/01 00:28:26;;;;;;;7.80;5.60;;;17.00;99.90;;;;;;4994507;28;20691;-89
2021/08/01 00:30:54;;;;;;;5.93;5.00;;;17.00;99.90;;;;;;5001034;28;20627;-91
2021/08/01 00:33:21;;;;;;;6.47;5.70;;;17.00;99.90;;;;;;4999696;28;20634;-89
2021/08/01 00:35:48;;;;;;;5.93;5.43;;;17.00;99.90;;;;;;5001387;28;20617;-90
2021/08/01 00:38:15;;;;;;;7.03;5.10;;;17.00;99.90;;;;;;4996598;28;20683;-91
2021/08/01 00:40:42;;;;;;;7.43;5.57;;;16.90;99.90;;;;;;4998639;28;20650;-90
2021/08/01 00:43:09;;;;;;;7.20;4.90;;;16.90;99.90;;;;;;4996793;28;20656;-90
2021/08/01 00:45:40;;;;;;;6.03;5.27;;;16.90;99.90;;;;;;4999121;28;20632;-90
2021/08/01 00:48:10;;;;;;;6.53;5.40;;;16.90;99.90;;;;;;5003165;28;20686;-90
2021/08/01 00:50:37;;;;;;;7.80;5.50;;;16.90;99.90;;;;;;5003925;28;20651;-90
2021/08/01 00:53:04;;;;;;;5.10;4.70;;;16.90;99.90;;;;;;5002913;28;20663;-89
2021/08/01 00:55:30;;;;;;;6.00;5.40;;;16.90;99.90;;;;;;4995450;28;20624;-88
2021/08/01 00:57:57;;;;;;;5.87;5.00;;;16.90;99.90;;;;;;4997389;28;20617;-89
2021/08/01 01:00:44;;;;;;;5.13;4.70;;;16.80;99.90;;;;;;5002550;28;20681;-90
2021/08/01 01:03:18;;;;;;;5.97;4.30;;;16.80;99.90;;;;;;4994637;28;21014;-90
2021/08/01 01:05:50;;;;;;;6.20;4.80;;;16.70;99.90;;;;;;5000563;28;20631;-89
2021/08/01 01:08:23;;;;;;;4.97;4.57;;;16.70;99.90;;;;;;5003324;28;20657;-90
2021/08/01 01:10:55;;;;;;;6.60;5.00;;;16.70;99.90;;;;;;4998189;28;20620;-91
2021/08/01 01:13:27;;;;;;;5.00;4.50;;;16.60;99.90;;;;;;4999976;28;20638;-91
2021/08/01 01:15:56;;;;;;;7.20;5.10;;;16.60;99.90;;;;;;5002130;28;20630;-91
2021/08/01 01:18:28;;;;;;;9.07;5.20;;;16.60;99.90;;;;;;5015249;28;20969;-90
2021/08/01 01:21:07;;;;;;;5.53;4.50;;;16.60;99.90;;;;;;5017129;28;20658;-90
2021/08/01 01:23:41;;;;;;;5.33;4.50;;;16.60;99.90;;;;;;5007983;28;20623;-91
2021/08/01 01:26:13;;;;;;;5.20;4.13;;;16.60;99.90;;;;;;5004149;28;20639;-91
2021/08/01 01:28:52;;;;;;;8.10;4.90;;;16.50;99.90;;;;;;5002153;28;21171;-90
2021/08/01 01:31:32;;;;;;;5.77;4.70;;;16.50;99.90;;;;;;5002675;28;20662;-91
2021/08/01 01:34:06;;;;;;;7.13;4.83;;;16.40;99.90;;;;;;4999535;28;20642;-91
2021/08/01 01:36:37;;;;;;;6.00;5.40;;;16.50;99.90;;;;;;5001175;28;20623;-90
2021/08/01 01:39:06;;;;;;;6.40;4.83;;;16.50;99.90;;;;;;5000236;28;21224;-91
2021/08/01 01:41:35;;;;;;;7.93;6.23;;;16.40;99.90;;;;;;5000722;28;20663;-92
2021/08/01 01:44:02;;;;;;;5.57;5.07;;;16.40;99.90;;;;;;5003244;28;20592;-93
2021/08/01 01:46:29;;;;;;;6.10;5.53;;;16.40;99.90;;;;;;5001757;28;20659;-93
2021/08/01 01:48:58;;;;;;;6.70;5.50;;;16.40;99.90;;;;;;5002812;28;20629;-95
2021/08/01 01:51:25;;;;;;;6.87;5.57;;;16.50;99.90;;;;;;5006597;28;20648;-93
2021/08/01 01:53:54;;;;;;;6.30;5.70;;;16.40;99.90;;;;;;4999661;28;20774;-94
2021/08/01 01:56:22;;;;;;;6.30;5.70;;;16.40;99.90;;;;;;5004749;28;20650;-93
2021/08/01 01:58:49;;;;;;;5.67;5.20;;;16.40;99.90;;;;;;5001296;28;20647;-93
2021/08/01 02:01:17;;;;;;;5.57;4.97;;;16.40;99.90;;;;;;5008188;28;20654;-91
2021/08/01 02:03:44;;;;;;;5.70;5.20;;;16.40;99.90;;;;;;5002582;28;20631;-91
2021/08/01 02:06:14;;;;;;;7.47;4.87;;;16.40;99.90;;;;;;5005547;28;20617;-92
2021/08/01 02:08:48;;;;;;;6.00;5.10;;;16.30;99.90;;;;;;5000086;28;20636;-91
2021/08/01 02:11:20;;;;;;;5.77;5.17;;;16.30;99.90;;;;;;4996362;28;21219;-90
2021/08/01 02:13:53;;;;;;;8.50;5.57;;;16.30;99.90;;;;;;4999418;28;20620;-92
2021/08/01 02:16:23;;;;;;;6.77;5.80;;;16.40;99.90;;;;;;4997884;28;20624;-91
2021/08/01 02:18:52;;;;;;;5.50;5.00;;;16.40;99.90;;;;;;5018566;28;20592;-91
2021/08/01 02:21:21;;;;;;;6.03;5.53;;;16.30;99.90;;;;;;4998600;28;20648;-91
2021/08/01 02:23:51;;;;;;;7.53;5.10;;;16.30;99.90;;;;;;5004969;28;20616;-91
2021/08/01 02:26:23;;;;;;;6.27;5.47;;;16.30;99.90;;;;;;5005859;28;20639;-92
2021/08/01 02:28:52;;;;;;;8.70;5.27;;;16.30;99.90;;;;;;4999491;28;20580;-91
2021/08/01 02:31:20;;;;;;;7.23;5.63;;;16.30;99.90;;;;;;5004029;28;20651;-91
2021/08/01 02:33:48;;;;;;;5.93;5.37;;;16.30;99.90;;;;;;5004551;28;20635;-92
2021/08/01 02:36:15;;;;;;;6.17;5.53;;;16.30;99.90;;;;;;5001744;28;20628;-91
2021/08/01 02:38:43;;;;;;;4.50;4.20;;;16.30;99.90;;;;;;5004139;28;20630;-92
2021/08/01 02:41:15;;;;;;;4.67;4.27;;;16.20;99.90;;;;;;5002194;28;21226;-92
2021/08/01 02:43:45;;;;;;;4.70;3.70;;;16.20;99.90;;;;;;5004059;28;20591;-93
2021/08/01 02:46:12;;;;;;;5.00;3.57;;;16.20;99.90;;;;;;5002417;28;20626;-92
2021/08/01 02:48:42;;;;;;;4.17;3.80;;;16.10;99.90;;;;;;4999779;28;20664;-92
2021/08/01 02:51:10;;;;;;;4.80;4.20;;;16.20;99.90;;;;;;5003555;28;20656;-91
2021/08/01 02:53:44;;;;;;;5.03;4.47;;;16.20;99.90;;;;;;5006964;28;20640;-93
2021/08/01 02:56:12;;;;;;;4.77;4.37;;;16.20;99.90;;;;;;5002514;28;20662;-92
2021/08/01 02:58:40;;;;;;;7.10;4.03;;;16.20;99.90;;;;;;5007462;28;20643;-92
2021/08/01 03:01:10;;;;;;;4.77;4.37;;;16.10;99.90;;;;;;4999478;28;20628;-90
2021/08/01 03:03:38;;;;;;;4.87;4.30;;;16.10;99.90;;;;;;4998007;28;20642;-91
2021/08/01 03:06:05;;;;;;;5.27;4.60;;;16.10;99.90;;;;;;5003254;28;21401;-91
2021/08/01 03:08:33;;;;;;;7.13;4.30;;;16.10;99.90;;;;;;5002279;28;20671;-91
2021/08/01 03:11:00;;;;;;;7.13;4.67;;;16.10;99.90;;;;;;5000478;28;20644;-91
2021/08/01 03:13:27;;;;;;;4.37;3.97;;;16.10;99.90;;;;;;5000046;28;20993;-91
2021/08/01 03:15:54;;;;;;;5.00;4.20;;;16.00;99.90;;;;;;5001446;28;20638;-90
2021/08/01 03:18:22;;;;;;;5.67;4.03;;;16.00;99.90;;;;;;5008520;28;20620;-90
2021/08/01 03:20:49;;;;;;;5.07;4.60;;;16.00;99.90;;;;;;5001528;28;20612;-91
2021/08/01 03:23:16;;;;;;;4.70;4.20;;;16.00;99.90;;;;;;5002218;28;20636;-91
2021/08/01 03:25:42;;;;;;;4.30;3.80;;;16.00;99.90;;;;;;5001914;28;20622;-91
2021/08/01 03:28:09;;;;;;;5.60;4.10;;;16.00;99.90;;;;;;4998574;28;21044;-90
2021/08/01 03:30:36;;;;;;;4.43;3.27;;;15.90;99.90;;;;;;5005629;28;20623;-90
2021/08/01 03:33:03;;;;;;;4.00;3.70;;;15.90;99.90;;;;;;5003892;28;20671;-91
2021/08/01 03:35:31;;;;;;;9.97;4.43;;;15.90;99.90;;;;;;4998020;28;20628;-90
2021/08/01 03:37:58;;;;;;;5.67;4.70;;;15.80;99.90;;;;;;5003315;28;20628;-92
2021/08/01 03:40:25;;;;;;;5.40;4.40;;;15.80;99.90;;;;;;4996920;28;20976;-91
2021/08/01 03:42:52;;;;;;;6.87;4.20;;;15.90;99.90;;;;;;5000947;28;20655;-91
2021/08/01 03:45:20;;;;;;;9.50;4.33;;;15.90;99.90;;;;;;5001275;28;20654;-92
2021/08/01 03:47:47;;;;;;;5.47;4.47;;;15.80;99.90;;;;;;4999836;28;20674;-91
2021/08/01 03:50:14;;;;;;;5.43;4.30;;;15.80;99.90;;;;;;4997690;28;20633;-92
2021/08/01 03:52:42;;;;;;;5.23;4.63;;;15.80;99.90;;;;;;5003507;28;20668;-90
2021/08/01 03:55:10;;;;;;;6.13;4.23;;;15.80;99.90;;;;;;4999058;28;20992;-90
2021/08/01 03:57:37;;;;;;;5.30;4.17;;;15.80;99.90;;;;;;4999791;28;20617;-90
2021/08/01 04:00:07;;;;;;;4.40;4.10;;;15.80;99.90;;;;;;4999536;28;20624;-90
2021/08/01 04:02:36;;;;;;;4.47;4.07;;;15.70;99.90;;;;;;5000061;28;20651;-90
2021/08/01 04:05:03;;;;;;;5.43;4.60;;;15.70;99.90;;;;;;4998048;28;20963;-90
2021/08/01 04:07:29;;;;;;;6.33;4.70;;;15.70;99.90;;;;;;4998778;28;20663;-90
2021/08/01 04:09:57;;;;;;;4.53;4.00;;;15.70;99.90;;;;;;4997691;28;20632;-90
2021/08/01 04:12:24;;;;;;;4.03;3.70;;;15.70;99.90;;;;;;5000217;28;20656;-90
2021/08/01 04:14:51;;;;;;;5.10;4.70;;;15.70;99.90;;;;;;5001209;28;20644;-90
2021/08/01 04:17:18;;;;;;;4.67;4.27;;;15.70;99.90;;;;;;5002633;28;20630;-89
2021/08/01 04:19:45;;;;;;;6.63;4.13;;;15.70;99.90;;;;;;4993383;28;20635;-90
2021/08/01 04:22:14;;;;;;;4.70;4.30;;;15.60;99.90;;;;;;4995432;28;20702;-90
2021/08/01 04:24:41;;;;;;;4.23;3.93;;;15.60;99.90;;;;;;4994527;28;20628;-89
2021/08/01 04:27:09;;;;;;;4.60;4.27;;;15.60;99.90;;;;;;4998843;28;20640;-91
2021/08/01 04:29:36;;;;;;;4.10;3.80;;;15.60;99.90;;;;;;4992034;28;20632;-92
2021/08/01 04:32:03;;;;;;;4.37;4.07;;;15.60;99.90;;;;;;4999710;28;20659;-91
2021/08/01 04:34:30;;;;;;;4.57;4.20;;;15.60;99.90;;;;;;5001354;28;20631;-91
2021/08/01 04:36:57;;;;;;;4.20;3.67;;;15.60;99.90;;;;;;4997218;28;20610;-91
2021/08/01 04:39:24;;;;;;;4.27;3.93;;;15.60;99.90;;;;;;4996753;28;20624;-91
2021/08/01 04:41:54;;;;;;;3.83;3.53;;;15.60;99.90;;;;;;5001455;28;20663;-92
2021/08/01 04:44:22;;;;;;;4.30;3.90;;;15.60;99.90;;;;;;5003117;28;20661;-92
2021/08/01 04:46:49;;;;;;;4.00;3.70;;;15.60;99.90;;;;;;4998952;28;20636;-91
2021/08/01 04:49:16;;;;;;;4.63;4.23;;;15.60;99.90;;;;;;4999402;28;20987;-90
2021/08/01 04:51:43;;;;;;;4.40;4.00;;;15.60;99.90;;;;;;4996498;28;21285;-91
2021/08/01 04:54:10;;;;;;;4.53;4.13;;;15.60;99.90;;;;;;4996909;28;20624;-90
2021/08/01 04:56:36;;;;;;;4.67;3.90;;;15.60;99.90;;;;;;4992619;28;20644;-90
2021/08/01 04:59:03;;;;;;;6.00;4.10;;;15.60;99.90;;;;;;4996181;28;20632;-89
2021/08/01 05:01:34;;;;;;;4.13;3.83;;;15.60;99.90;;;;;;4997387;28;21241;-90
2021/08/01 05:04:01;;;;;;;4.20;3.90;;;15.60;99.90;;;;;;5001334;28;20636;-90
2021/08/01 05:06:28;;;;;;;5.63;4.40;;;15.60;99.90;;;;;;5002510;28;20628;-91
2021/08/01 05:08:55;;;;;;;4.83;4.43;;;15.60;99.90;;;;;;4991556;28;20695;-90
2021/08/01 05:11:22;;;;;;;4.20;3.90;;;15.60;99.90;;;;;;4993954;28;21023;-90
2021/08/01 05:13:50;;;;;;;4.10;3.77;;;15.60;99.90;;;;;;4998870;28;20635;-91
2021/08/01 05:16:18;;;;;;;6.33;3.40;;;15.60;99.90;;;;;;4995489;28;20585;-91
2021/08/01 05:18:46;;;;;;;4.87;4.40;;;15.60;99.90;;;;;;5005355;28;20628;-88
2021/08/01 05:21:13;;;;;;;4.13;3.83;;;15.60;99.90;;;;;;4996001;28;20658;-88
2021/08/01 05:23:40;;;;;;;4.93;4.43;;;15.60;99.90;;;;;;5000562;28;20706;-88
2021/08/01 05:26:06;;;;;;;4.43;3.57;;;15.60;99.90;;;;;;5002584;28;20755;-87
2021/08/01 05:28:33;;;;;;;5.43;4.03;;;15.60;99.90;;;;;;4994741;28;20665;-90
2021/08/01 05:31:00;;;;;;;4.10;3.70;;;15.60;99.90;;;;;;5003685;28;20659;-90
2021/08/01 05:33:27;;;;;;;4.97;4.20;;;15.60;99.90;;;;;;5001561;28;20670;-90
2021/08/01 05:35:56;;;;;;;4.30;4.00;;;15.70;99.90;;;;;;5001258;28;21119;-89
2021/08/01 05:38:22;;;;;;;5.20;3.20;;;15.70;99.90;;;;;;5002948;28;20691;-90
2021/08/01 05:40:49;;;;;;;4.67;4.20;;;15.90;99.90;;;;;;4994338;28;20647;-90
2021/08/01 05:43:16;;;;;;;5.27;4.77;;;15.90;99.90;;;;;;5001901;28;20619;-90
2021/08/01 05:45:44;;;;;;;4.60;3.40;;;15.90;99.90;;;;;;4999593;28;20628;-88
2021/08/01 05:48:11;;;;;;;4.23;3.83;;;16.00;99.90;;;;;;4999935;28;20656;-89
2021/08/01 05:50:38;;;;;;;4.23;3.83;;;16.00;99.90;;;;;;4998102;28;20643;-89
2021/08/01 05:53:06;;;;;;;4.80;4.03;;;16.10;99.90;;;;;;4995525;28;20632;-90
2021/08/01 05:55:33;;;;;;;3.80;3.60;;;16.10;99.90;;;;;;4996600;28;20621;-90
2021/08/01 05:58:01;;;;;;;4.00;3.60;;;16.10;99.90;;;;;;4997215;28;20655;-91
2021/08/01 06:00:29;;;;;;;3.60;3.30;;;16.20;99.90;;;;;;4999394;28;20624;-91
2021/08/01 06:02:56;;;;;;;7.40;3.97;;;16.20;99.90;;;;;;5000160;28;20648;-90
2021/08/01 06:05:27;;;;;;;6.07;3.97;;;16.30;99.90;;;;;;5003380;28;20628;-90
2021/08/01 06:07:55;;;;;;;5.03;4.00;;;16.30;99.90;;;;;;5003999;28;20675;-90
2021/08/01 06:10:25;;;;;;;5.17;4.30;;;16.30;99.90;;;;;;5000983;28;20675;-89
2021/08/01 06:12:51;;;;;;;4.30;3.90;;;16.30;99.90;;;;;;5001560;28;20619;-90
2021/08/01 06:15:18;;;;;;;3.70;2.80;;;16.40;99.90;;;;;;5005755;28;20623;-90
2021/08/01 06:17:45;;;;;;;4.00;3.70;;;16.40;99.90;;;;;;4999091;28;20992;-90
2021/08/01 06:20:13;;;;;;;3.60;3.30;;;16.50;99.90;;;;;;4996676;28;20652;-91
2021/08/01 06:22:42;;;;;;;4.10;3.57;;;16.50;99.90;;;;;;5003143;28;20623;-90
2021/08/01 06:25:09;;;;;;;3.73;3.43;;;16.50;99.90;;;;;;5001630;28;20660;-89
2021/08/01 06:27:42;;;;;;;4.23;3.90;;;16.50;99.90;;;;;;4998051;28;20656;-90
2021/08/01 06:30:10;;;;;;;4.80;3.97;;;16.50;99.90;;;;;;5008476;28;20643;-91
2021/08/01 06:32:37;;;;;;;4.50;4.20;;;16.50;99.90;;;;;;5004576;28;20652;-90
2021/08/01 06:35:05;;;;;;;4.23;3.30;;;16.50;99.90;;;;;;5001131;28;20623;-89
2021/08/01 06:37:32;;;;;;;3.87;3.53;;;16.50;99.90;;;;;;4999063;28;20654;-90
2021/08/01 06:39:58;;;;;;;3.83;3.53;;;16.60;99.90;;;;;;4996762;28;21190;-90
2021/08/01 06:42:25;;;;;;;3.60;3.40;;;16.60;99.90;;;;;;5002838;28;20982;-89
2021/08/01 06:44:54;;;;;;;4.70;4.40;;;16.60;99.90;;;;;;5002735;28;21322;-90
2021/08/01 06:47:20;;;;;;;5.10;3.90;;;16.60;99.90;;;;;;5003580;28;20614;-90
2021/08/01 06:49:47;;;;;;;5.33;4.90;;;16.60;99.90;;;;;;5004224;28;20686;-90
2021/08/01 06:52:14;;;;;;;5.13;4.07;;;16.60;99.90;;;;;;4733881;28;5001799;-91
2021/08/01 06:54:41;;;;;;;4.30;4.00;;;16.60;99.90;;;;;;4970181;28;20649;-90
2021/08/01 06:57:07;;;;;;;5.00;4.60;;;16.60;99.90;;;;;;4965758;28;20654;-91
2021/08/01 06:59:34;;;;;;;9.97;4.07;;;16.70;99.90;;;;;;4964685;28;20665;-90
2021/08/01 07:02:03;;;;;;;6.83;4.40;;;16.70;99.90;;;;;;4967812;28;21022;-92
2021/08/01 07:04:29;;;;;;;5.07;4.57;;;16.80;99.90;;;;;;4968611;28;20655;-92
2021/08/01 07:06:56;;;;;;;4.30;3.90;;;16.90;99.90;;;;;;4964992;28;21209;-89
2021/08/01 07:09:25;;;;;;;3.63;3.37;;;16.90;99.90;;;;;;4967759;28;21228;-89
2021/08/01 07:11:52;;;;;;;8.00;4.73;;;17.00;99.90;;;;;;4968579;28;21979;-89
2021/08/01 07:14:18;;;;;;;5.47;4.97;;;17.00;99.90;;;;;;4963684;28;20614;-90
2021/08/01 07:16:46;;;;;;;4.73;4.27;;;17.00;99.90;;;;;;4966684;28;20636;-89
2021/08/01 07:19:14;;;;;;;6.07;4.30;;;17.10;99.90;;;;;;4961393;28;20686;-89
2021/08/01 07:21:41;;;;;;;4.90;4.50;;;17.10;99.90;;;;;;4961916;28;20643;-90
2021/08/01 07:24:08;;;;;;;4.47;4.17;;;17.20;99.90;;;;;;4965004;28;20630;-89
2021/08/01 07:26:34;;;;;;;4.40;4.00;;;17.30;99.90;;;;;;4967097;28;20652;-90
2021/08/01 07:29:01;;;;;;;4.60;4.30;;;17.30;99.90;;;;;;4961471;28;21323;-90
2021/08/01 07:31:28;;;;;;;4.70;4.30;;;17.20;99.90;;;;;;4963549;28;20649;-90
2021/08/01 07:33:54;;;;;;;5.97;4.70;;;17.40;99.90;;;;;;4961979;28;20650;-90
2021/08/01 07:36:23;;;;;;;7.50;4.70;;;17.40;99.90;;;;;;4963163;28;20637;-90
2021/08/01 07:38:50;;;;;;;5.10;4.60;;;17.40;99.90;;;;;;4970158;28;20645;-90
2021/08/01 07:41:17;;;;;;;5.83;5.20;;;17.50;99.90;;;;;;4965354;28;20638;-89
2021/08/01 07:43:44;;;;;;;5.23;4.73;;;17.40;99.90;;;;;;4967093;28;20625;-90
2021/08/01 07:46:10;;;;;;;4.30;4.00;;;17.40;99.90;;;;;;4967880;28;20645;-90
2021/08/01 07:48:37;;;;;;;5.67;4.20;;;17.50;99.90;;;;;;4964379;28;20686;-90
2021/08/01 07:51:04;;;;;;;5.30;4.30;;;17.50;99.90;;;;;;4967908;28;21211;-89
2021/08/01 07:53:33;;;;;;;4.60;4.30;;;17.50;99.90;;;;;;4965313;28;21207;-90
2021/08/01 07:56:00;;;;;;;4.60;4.20;;;17.50;99.90;;;;;;4964499;28;20651;-90
2021/08/01 07:58:27;;;;;;;4.30;4.00;;;17.50;99.90;;;;;;4964266;28;20661;-90
2021/08/01 08:00:54;;;;;;;6.03;4.80;;;17.40;99.90;;;;;;4963949;28;20705;-90
2021/08/01 08:03:21;;;;;;;5.00;4.60;;;17.40;99.90;;;;;;4960937;28;20626;-89
2021/08/01 08:05:48;;;;;;;4.77;4.37;;;17.40;99.90;;;;;;4961259;28;20623;-89
2021/08/01 08:08:14;;;;;;;3.77;3.47;;;17.30;99.90;;;;;;4965732;28;20741;-91
2021/08/01 08:10:42;;;;;;;4.73;4.33;;;17.40;99.90;;;;;;4964715;28;20637;-91
2021/08/01 08:13:09;;;;;;;5.73;5.20;;;17.40;99.90;;;;;;4634827;28;10001171;-91
2021/08/01 08:15:37;;;;;;;6.40;5.10;;;17.30;99.90;;;;;;4964026;28;20230;-91
2021/08/01 08:18:04;;;;;;;5.37;4.97;;;17.30;99.90;;;;;;4967610;28;20641;-90
2021/08/01 08:20:31;;;;;;;5.50;5.00;;;17.20;99.90;;;;;;4966169;28;20618;-91
2021/08/01 08:22:58;;;;;;;5.07;4.60;;;17.20;99.90;;;;;;4970343;28;20622;-91
2021/08/01 08:25:25;;;;;;;5.20;4.70;;;17.20;99.90;;;;;;4963177;28;20614;-90
2021/08/01 08:27:53;;;;;;;4.70;4.27;;;17.10;99.90;;;;;;4962855;28;21160;-91
2021/08/01 08:30:20;;;;;;;4.60;4.30;;;17.10;99.90;;;;;;4964241;28;20671;-91
2021/08/01 08:32:47;;;;;;;5.10;4.70;;;17.10;99.90;;;;;;4964837;28;20636;-90
2021/08/01 08:35:14;;;;;;;5.27;4.83;;;17.10;99.90;;;;;;4965559;28;20638;-90
2021/08/01 08:37:45;;;;;;;6.10;5.70;;;17.00;99.90;;;;;;4957311;28;21165;-91
2021/08/01 08:40:12;;;;;;;6.23;4.90;;;17.00;99.90;;;;;;4967759;28;20638;-91
2021/08/01 08:42:39;;;;;;;5.70;5.20;;;17.00;99.90;;;;;;4961989;28;20646;-91
2021/08/01 08:45:10;;;;;;;5.50;5.10;;;17.00;99.90;;;;;;4964842;28;20713;-90
2021/08/01 08:47:40;;;;;;;6.53;4.50;;;16.90;99.90;;;;;;4965001;28;20634;-90
2021/08/01 08:50:12;;;;;;;5.87;5.30;;;16.90;99.90;;;;;;4962934;28;20677;-90
2021/08/01 08:52:41;;;;;;;5.67;5.27;;;17.00;99.90;;;;;;4967070;28;20630;-90
2021/08/01 08:55:09;;;;;;;5.00;4.60;;;17.00;99.90;;;;;;4964558;28;20629;-90
2021/08/01 08:57:40;;;;;;;5.30;4.40;;;17.10;99.90;;;;;;4966175;28;20667;-89
2021/08/01 09:00:11;;;;;;;6.07;5.47;;;17.20;99.90;;;;;;4964938;28;20654;-91
2021/08/01 09:02:38;;;;;;;4.77;4.47;;;17.40;99.90;;;;;;4963381;28;20591;-91
2021/08/01 09:05:07;;;;;;;6.60;4.70;;;17.50;99.90;;;;;;4965741;28;20627;-92
2021/08/01 09:07:34;;;;;;;5.00;4.33;;;17.60;99.90;;;;;;4967401;28;20630;-91
2021/08/01 09:10:01;;;;;;;4.10;3.80;;;17.60;99.90;;;;;;4966031;28;20681;-92
2021/08/01 09:12:28;;;;;;;5.03;4.73;;;17.60;99.90;;;;;;4963042;28;20626;-92
2021/08/01 09:15:13;;;;;;;6.07;5.50;;;17.70;99.90;;;;;;4966945;28;20737;-91
2021/08/01 09:17:41;;;;;;;5.50;5.00;;;17.80;99.90;;;;;;4962316;28;20643;-91
2021/08/01 09:20:17;;;;;;;5.13;4.60;;;17.90;99.90;;;;;;4966486;28;20654;-91
2021/08/01 09:23:03;;;;;;;5.63;4.73;;;18.00;99.90;;;;;;4963749;28;20589;-92
2021/08/01 09:25:31;;;;;;;5.10;4.70;;;18.10;99.90;;;;;;4965439;28;20628;-91
2021/08/01 09:28:07;;;;;;;8.60;4.10;;;18.10;99.90;;;;;;4956155;28;20635;-91
2021/08/01 09:30:49;;;;;;;4.73;4.17;;;18.10;99.90;;;;;;4964678;28;20688;-91
2021/08/01 09:33:20;;;;;;;6.30;4.33;;;18.20;99.90;;;;;;4964254;28;20684;-91
2021/08/01 09:35:47;;;;;;;4.77;4.07;;;18.20;99.90;;;;;;4963969;28;20721;-91
2021/08/01 09:38:14;;;;;;;4.47;4.10;;;18.30;99.90;;;;;;4967739;28;20670;-91
2021/08/01 09:40:42;;;;;;;4.10;3.67;;;18.30;99.90;;;;;;4964370;28;21017;-91
2021/08/01 09:43:10;;;;;;;4.20;3.73;;;18.20;99.90;;;;;;4967414;28;20673;-92
2021/08/01 09:45:38;;;;;;;4.03;3.60;;;18.30;99.90;;;;;;4965778;28;20642;-91
2021/08/01 09:48:20;;;;;;;2.60;2.50;;;18.30;99.90;;;;;;4972274;28;20711;-91
2021/08/01 09:51:05;;;;;;;2.40;2.13;;;18.40;99.90;;;;;;4967257;28;20657;-92
2021/08/01 09:53:33;;;;;;;2.80;2.60;;;18.50;99.90;;;;;;4970681;28;20657;-92
2021/08/01 09:56:14;;;;;;;1.97;1.80;;;18.50;99.90;;;;;;4963760;28;20632;-92
2021/08/01 09:58:42;;;;;;;2.20;2.10;;;18.60;99.90;;;;;;4971508;28;20710;-92
2021/08/01 10:01:09;;;;;;;2.27;2.10;;;18.70;99.90;;;;;;4966824;28;20720;-91
2021/08/01 10:03:38;;;;;;;2.17;1.87;;;18.80;99.90;;;;;;4963463;28;21049;-92
2021/08/01 10:06:10;;;;;;;2.07;1.87;;;18.90;99.90;;;;;;4966061;28;21030;-92
2021/08/01 10:08:38;;;;;;;2.10;2.00;;;19.10;99.90;;;;;;4958755;28;20638;-91
2021/08/01 10:11:11;;;;;;;2.73;2.47;;;19.20;99.90;;;;;;4963931;28;20728;-91
2021/08/01 10:13:38;;;;;;;2.23;2.07;;;19.20;99.90;;;;;;4966700;28;20685;-92
2021/08/01 10:16:08;;;;;;;2.60;1.90;;;19.30;99.90;;;;;;4967084;28;20653;-92
2021/08/01 10:18:36;;;;;;;2.43;2.23;;;19.40;99.90;;;;;;4967016;28;20661;-92
2021/08/01 10:21:05;;;;;;;2.37;2.20;;;19.40;99.90;;;;;;4965980;28;21504;-92
2021/08/01 10:23:36;;;;;;;3.07;2.30;;;19.50;99.90;;;;;;4969391;28;20693;-92
2021/08/01 10:26:07;;;;;;;2.80;2.60;;;19.40;99.90;;;;;;4961045;28;20689;-92
2021/08/01 10:28:38;;;;;;;3.50;2.10;;;19.50;99.90;;;;;;4959124;28;20659;-92
2021/08/01 10:31:10;;;;;;;2.10;1.90;;;19.50;99.90;;;;;;4957069;28;20693;-92
2021/08/01 10:33:49;;;;;;;2.20;1.97;;;19.50;99.90;;;;;;4956699;28;20699;-93
2021/08/01 10:36:22;;;;;;;2.10;2.00;;;19.50;99.90;;;;;;4963448;28;20648;-92
2021/08/01 10:38:50;;;;;;;3.77;2.77;;;19.50;99.90;;;;;;4964065;28;20649;-91
2021/08/01 10:41:20;;;;;;;2.67;2.30;;;19.50;99.90;;;;;;4960276;28;20720;-92
2021/08/01 10:43:49;;;;;;;2.73;2.37;;;19.50;99.90;;;;;;4960008;28;20657;-92
2021/08/01 10:46:19;;;;;;;3.30;2.77;;;19.60;99.90;;;;;;4965687;28;21428;-91
2021/08/01 10:48:48;;;;;;;3.93;2.30;;;19.70;99.90;;;;;;4959442;28;20778;-92
2021/08/01 10:51:15;;;;;;;2.40;2.30;;;19.80;99.90;;;;;;4964368;28;20699;-92
2021/08/01 10:53:42;;;;;;;3.03;2.73;;;20.00;99.90;;;;;;4963402;28;20625;-92
2021/08/01 10:56:31;;;;;;;2.93;2.63;;;20.20;99.90;;;;;;4962161;28;20971;-92
2021/08/01 10:58:59;;;;;;;3.03;2.80;;;20.40;99.90;;;;;;4961245;28;20668;-92
2021/08/01 11:01:27;;;;;;;2.77;2.53;;;20.50;99.90;;;;;;4965115;28;20723;-92
2021/08/01 11:04:28;;;;;;;2.70;2.37;;;20.60;99.90;;;;;;4959958;28;20634;-93
2021/08/01 11:06:55;;;;;;;3.70;2.57;;;20.70;99.90;;;;;;4962550;28;20989;-92
2021/08/01 11:09:22;;;;;;;2.90;2.70;;;20.80;99.90;;;;;;4964143;28;20661;-93
2021/08/01 11:12:22;;;;;;;4.37;2.93;;;21.00;99.90;;;;;;4963455;28;20671;-92
2021/08/01 11:14:49;;;;;;;3.83;2.60;;;21.00;99.90;;;;;;4965168;28;20755;-93
2021/08/01 11:17:18;;;;;;;3.20;2.90;;;21.10;99.90;;;;;;4964574;28;20696;-92
2021/08/01 11:19:47;;;;;;;3.10;2.70;;;21.30;99.90;;;;;;4960942;28;21040;-93
2021/08/01 11:22:47;;;;;;;4.00;2.60;;;21.30;99.90;;;;;;4958122;28;20662;-93
2021/08/01 11:25:19;;;;;;;2.73;2.53;;;21.40;99.90;;;;;;4959684;28;20631;-92
2021/08/01 11:28:21;;;;;;;3.40;2.40;;;21.40;99.90;;;;;;4958147;28;20711;-92
2021/08/01 11:31:08;;;;;;;3.87;2.60;;;21.50;99.90;;;;;;4960333;28;20672;-92
2021/08/01 11:33:38;;;;;;;3.33;2.87;;;21.40;99.90;;;;;;4961686;28;20633;-93
2021/08/01 11:36:20;;;;;;;2.80;2.60;;;21.60;99.90;;;;;;4965471;28;21014;-94
2021/08/01 11:39:02;;;;;;;2.47;2.27;;;21.80;99.90;;;;;;4968001;28;20663;-93
2021/08/01 11:41:38;;;;;;;2.67;1.77;;;22.00;99.90;;;;;;4958846;28;20657;-93
2021/08/01 11:44:07;;;;;;;3.30;2.40;;;22.30;99.90;;;;;;4961922;28;20641;-93
2021/08/01 11:47:07;;;;;;;3.30;2.00;;;22.40;99.90;;;;;;4963597;28;20621;-92
2021/08/01 11:49:37;;;;;;;2.70;2.50;;;22.30;99.90;;;;;;4965294;28;21022;-92
2021/08/01 11:52:07;;;;;;;3.00;2.80;;;22.60;99.90;;;;;;4961176;28;20720;-93
2021/08/01 11:54:34;;;;;;;3.30;2.10;;;22.80;99.90;;;;;;4960897;28;20717;-91
2021/08/01 11:57:03;;;;;;;6.97;3.03;;;23.10;99.90;;;;;;4958091;28;20670;-91
2021/08/01 11:59:31;;;;;;;4.40;2.40;;;23.10;99.90;;;;;;4964431;28;20642;-91
2021/08/01 12:01:59;;;;;;;3.60;2.60;;;23.00;99.90;;;;;;4958320;28;20649;-90
2021/08/01 12:04:26;;;;;;;2.70;2.50;;;23.20;99.90;;;;;;4963018;28;20744;-90
2021/08/01 12:06:54;;;;;;;2.80;2.60;;;23.30;99.90;;;;;;4956427;28;21103;-91
2021/08/01 12:09:24;;;;;;;2.70;2.47;;;23.30;99.90;;;;;;4955879;28;20626;-91
2021/08/01 12:11:53;;;;;;;4.50;2.87;;;23.30;99.90;;;;;;4961567;28;20646;-91
2021/08/01 12:14:23;;;;;;;2.67;2.47;;;23.10;99.90;;;;;;4960565;28;20645;-91
2021/08/01 12:16:57;;;;;;;3.53;2.70;;;23.00;99.90;;;;;;4952470;28;20636;-91
2021/08/01 12:19:26;;;;;;;3.20;2.90;;;23.10;99.90;;;;;;4958113;28;20625;-91
2021/08/01 12:21:56;;;;;;;3.20;2.90;;;23.10;99.90;;;;;;4961874;28;20649;-91
2021/08/01 12:24:30;;;;;;;2.77;2.57;;;23.20;99.90;;;;;;4959901;28;20626;-91
2021/08/01 12:27:03;;;;;;;3.80;2.97;;;23.10;99.90;;;;;;4960028;28;20635;-91
2021/08/01 12:29:34;;;;;;;8.10;3.10;;;23.20;99.90;;;;;;4959150;28;21094;-91
2021/08/01 12:32:15;;;;;;;5.57;2.50;;;23.30;99.90;;;;;;4960422;28;20654;-90
2021/08/01 12:34:42;;;;;;;5.80;2.60;;;23.30;99.90;;;;;;4958811;28;21226;-91
2021/08/01 12:37:09;;;;;;;6.53;2.77;;;23.20;99.90;;;;;;4960362;28;20964;-91
2021/08/01 12:39:48;;;;;;;4.00;3.27;;;23.10;99.90;;;;;;4964319;28;20720;-91
2021/08/01 12:42:16;;;;;;;2.77;2.57;;;22.90;99.90;;;;;;4961661;28;20657;-91
2021/08/01 12:44:59;;;;;;;3.83;3.43;;;22.70;99.90;;;;;;4960149;28;20644;-90
2021/08/01 12:47:29;;;;;;;5.77;3.50;;;22.60;99.90;;;;;;4959410;28;21184;-91
2021/08/01 12:49:57;;;;;;;6.33;3.00;;;22.30;99.90;;;;;;4960775;28;20662;-90
2021/08/01 12:52:26;;;;;;;3.57;3.27;;;22.00;99.90;;;;;;4960258;28;20660;-90
2021/08/01 12:54:55;;;;;;;2.90;2.63;;;21.90;99.90;;;;;;4954126;28;20629;-90
2021/08/01 12:57:22;;;;;;;4.23;3.10;;;21.80;99.90;;;;;;4956169;28;20638;-88